Time;durP1;ratioP1;P1;durP2;ratioP2;P2;SDS_P1;SDS_P2;PMS_P1;PMS_P2;Temp;Humidity;BMP_temperature;BMP_pressure;BME280_temperature;BME280_humidity;BME280_pressure;Samples;Min_cycle;Max_cycle;Signal;HPM_P1;HPM_P2
2022/05/02 00:01:43;;;;;;;16.10;11.02;;;;;;;-145.50;100.00;65435.88;5067458;28;20044;-67
2022/05/02 00:04:10;;;;;;;19.00;13.23;;;;;;;-145.50;100.00;65435.88;5060148;28;20059;-67
2022/05/02 00:06:36;;;;;;;24.02;17.17;;;;;;;-145.50;100.00;65435.88;5072647;28;20600;-67
2022/05/02 00:09:03;;;;;;;17.45;11.98;;;;;;;-145.50;100.00;65435.88;5060176;28;20055;-66
2022/05/02 00:11:29;;;;;;;14.23;10.00;;;;;;;-145.50;100.00;65435.88;5066640;28;20051;-68
2022/05/02 00:13:56;;;;;;;14.25;9.50;;;;;;;-145.50;100.00;65435.88;5065009;28;20075;-66
2022/05/02 00:16:22;;;;;;;15.00;9.10;;;;;;;-145.50;100.00;65435.88;5062311;28;20131;-67
2022/05/02 00:18:49;;;;;;;13.05;9.88;;;;;;;-145.50;100.00;65435.88;5068474;28;20678;-66
2022/05/02 00:21:15;;;;;;;14.52;9.77;;;;;;;-145.50;100.00;65435.88;5061889;28;20127;-67
2022/05/02 00:23:41;;;;;;;16.17;9.73;;;;;;;-145.50;100.00;65435.88;5066810;28;20044;-67
2022/05/02 00:26:08;;;;;;;15.95;9.45;;;;;;;-145.50;100.00;65435.88;5056249;28;20580;-66
2022/05/02 00:28:34;;;;;;;18.65;9.95;;;;;;;-145.50;100.00;65435.88;5059837;28;20052;-68
2022/05/02 00:31:01;;;;;;;13.50;9.00;;;;;;;-145.50;100.00;65435.88;5068271;28;20386;-67
2022/05/02 00:33:27;;;;;;;14.52;9.50;;;;;;;-145.50;100.00;65435.88;5059956;28;20048;-68
2022/05/02 00:35:54;;;;;;;14.38;9.32;;;;;;;-145.50;100.00;65435.88;5069541;28;20052;-67
2022/05/02 00:38:20;;;;;;;13.35;9.25;;;;;;;-145.50;100.00;65435.88;5055699;28;20049;-67
2022/05/02 00:40:47;;;;;;;12.45;9.35;;;;;;;-145.50;100.00;65435.88;5062566;28;20131;-66
2022/05/02 00:43:13;;;;;;;12.75;9.07;;;;;;;-145.50;100.00;65435.88;5062570;28;20052;-66
2022/05/02 00:45:41;;;;;;;20.23;14.35;;;;;;;-145.50;100.00;65435.88;5066152;28;20059;-67
2022/05/02 00:48:08;;;;;;;20.77;14.50;;;;;;;-145.50;100.00;65435.88;5067400;28;20052;-67
2022/05/02 00:50:40;;;;;;;15.68;11.23;;;;;;;-145.50;100.00;65435.88;5063622;28;20055;-66
2022/05/02 00:53:12;;;;;;;14.15;9.85;;;;;;;-145.50;100.00;65435.88;5059327;28;20591;-67
2022/05/02 00:55:40;;;;;;;17.05;9.82;;;;;;;-145.50;100.00;65435.88;5058886;28;20136;-67
2022/05/02 00:58:07;;;;;;;15.13;9.43;;;;;;;-145.50;100.00;65435.88;5066983;28;20058;-67
2022/05/02 01:00:36;;;;;;;12.32;8.82;;;;;;;-145.50;100.00;65435.88;5058476;28;20291;-67
2022/05/02 01:03:05;;;;;;;13.20;9.60;;;;;;;-145.50;100.00;65435.88;5069499;28;20053;-67
2022/05/02 01:07:08;;;;;;;12.75;8.27;;;;;;;-145.50;100.00;65435.88;5065090;28;20271;-66
2022/05/02 01:08:26;;;;;;;14.07;9.43;;;;;;;-145.50;100.00;65435.88;5052473;28;20061;-66
2022/05/02 01:10:54;;;;;;;11.68;8.65;;;;;;;-145.50;100.00;65435.88;5064867;28;20048;-67
2022/05/02 01:13:46;;;;;;;13.20;8.97;;;;;;;-145.50;100.00;65435.88;5058427;28;20052;-67
2022/05/02 01:16:16;;;;;;;17.80;9.20;;;;;;;-145.50;100.00;65435.88;5061554;28;20721;-67
2022/05/02 01:18:45;;;;;;;14.18;9.38;;;;;;;-145.50;100.00;65435.88;5061127;28;20044;-66
2022/05/02 01:21:16;;;;;;;12.05;9.15;;;;;;;-145.50;100.00;65435.88;5059512;28;20565;-66
2022/05/02 01:23:58;;;;;;;14.07;9.75;;;;;;;-145.50;100.00;65435.88;5057139;28;20607;-67
2022/05/02 01:26:25;;;;;;;14.30;9.07;;;;;;;-145.50;100.00;65435.88;5069318;28;20386;-66
2022/05/02 01:28:54;;;;;;;12.73;8.75;;;;;;;-145.50;100.00;65435.88;5064832;28;20048;-66
2022/05/02 01:31:21;;;;;;;14.27;8.82;;;;;;;-145.50;100.00;65435.88;5058165;28;20292;-66
2022/05/02 01:33:49;;;;;;;14.38;9.25;;;;;;;-145.50;100.00;65435.88;5059633;28;20414;-65
2022/05/02 01:36:17;;;;;;;14.00;8.93;;;;;;;-145.50;100.00;65435.88;5054912;28;20051;-66
2022/05/02 01:38:44;;;;;;;12.63;9.05;;;;;;;-145.50;100.00;65435.88;5066401;28;20052;-66
2022/05/02 01:41:11;;;;;;;12.45;8.63;;;;;;;-145.50;100.00;65435.88;5059437;28;20060;-67
2022/05/02 01:43:39;;;;;;;14.70;8.70;;;;;;;-145.50;100.00;65435.88;5065295;28;20059;-67
2022/05/02 01:46:07;;;;;;;15.18;8.95;;;;;;;-145.50;100.00;65435.88;5065873;28;20052;-66
2022/05/02 01:48:34;;;;;;;11.82;8.27;;;;;;;-145.50;100.00;65435.88;5053468;28;20107;-66
2022/05/02 01:51:01;;;;;;;13.40;9.05;;;;;;;-145.50;100.00;65435.88;5067536;28;20047;-67
2022/05/02 01:53:27;;;;;;;12.73;9.77;;;;;;;-145.50;100.00;65435.88;5057930;28;20048;-66
2022/05/02 01:55:53;;;;;;;13.52;8.63;;;;;;;-145.50;100.00;65435.88;5064969;28;20052;-67
2022/05/02 01:58:20;;;;;;;13.45;9.38;;;;;;;-145.50;100.00;65435.88;5061742;28;20480;-67
2022/05/02 02:00:47;;;;;;;13.88;8.68;;;;;;;-145.50;100.00;65435.88;5067908;28;20049;-68
2022/05/02 02:03:13;;;;;;;13.38;9.05;;;;;;;-145.50;100.00;65435.88;5061500;28;20048;-67
2022/05/02 02:05:49;;;;;;;14.13;9.18;;;;;;;-145.50;100.00;65435.88;5057881;28;20059;-67
2022/05/02 02:08:18;;;;;;;15.38;9.68;;;;;;;-145.50;100.00;65435.88;5066722;28;20094;-66
2022/05/02 02:10:46;;;;;;;15.13;10.20;;;;;;;-145.50;100.00;65435.88;5054792;28;20053;-67
2022/05/02 02:13:14;;;;;;;15.30;9.85;;;;;;;-145.50;100.00;65435.88;5065460;28;20365;-67
2022/05/02 02:15:40;;;;;;;13.82;9.65;;;;;;;-145.50;100.00;65435.88;5051366;28;20098;-67
2022/05/02 02:18:07;;;;;;;25.67;15.13;;;;;;;-145.50;100.00;65435.88;5060854;28;20044;-67
2022/05/02 02:20:34;;;;;;;18.80;12.10;;;;;;;-145.50;100.00;65435.88;5066900;28;20074;-67
2022/05/02 02:23:02;;;;;;;20.40;12.30;;;;;;;-145.50;100.00;65435.88;5060027;28;20081;-67
2022/05/02 02:25:28;;;;;;;16.52;10.75;;;;;;;-145.50;100.00;65435.88;5066806;28;20056;-67
2022/05/02 02:27:55;;;;;;;13.88;10.02;;;;;;;-145.50;100.00;65435.88;5058566;28;20055;-67
2022/05/02 02:30:21;;;;;;;14.88;9.77;;;;;;;-145.50;100.00;65435.88;5061199;28;20048;-67
2022/05/02 02:32:48;;;;;;;15.63;9.90;;;;;;;-145.50;100.00;65435.88;5054490;28;20041;-67
2022/05/02 02:35:14;;;;;;;17.50;11.05;;;;;;;-145.50;100.00;65435.88;5067392;28;20056;-67
2022/05/02 02:37:41;;;;;;;16.35;10.80;;;;;;;-145.50;100.00;65435.88;5068374;28;20086;-68
2022/05/02 02:40:09;;;;;;;13.05;9.75;;;;;;;-145.50;100.00;65435.88;5060289;28;20048;-66
2022/05/02 02:42:36;;;;;;;16.13;9.65;;;;;;;-145.50;100.00;65435.88;5073216;28;20075;-67
2022/05/02 02:45:03;;;;;;;13.70;9.32;;;;;;;-145.50;100.00;65435.88;5054701;28;20104;-66
2022/05/02 02:47:29;;;;;;;16.40;10.30;;;;;;;-145.50;100.00;65435.88;5064908;28;20044;-67
2022/05/02 02:49:56;;;;;;;15.23;10.27;;;;;;;-145.50;100.00;65435.88;5059175;28;20143;-66
2022/05/02 02:52:23;;;;;;;15.45;9.82;;;;;;;-145.50;100.00;65435.88;5066773;28;20049;-67
2022/05/02 02:54:49;;;;;;;13.55;10.10;;;;;;;-145.50;100.00;65435.88;5069757;28;20054;-67
2022/05/02 02:57:16;;;;;;;14.27;10.00;;;;;;;-145.50;100.00;65435.88;5055375;28;20052;-67
2022/05/02 02:59:43;;;;;;;13.10;9.07;;;;;;;-145.50;100.00;65435.88;5060948;28;20044;-66
2022/05/02 03:02:10;;;;;;;15.57;10.70;;;;;;;-145.50;100.00;65435.88;5059084;28;20429;-66
2022/05/02 03:07:26;;;;;;;15.25;9.45;;;;;;;-145.50;100.00;65435.88;5057536;28;20417;-66
2022/05/02 03:09:53;;;;;;;16.45;10.18;;;;;;;-145.50;100.00;65435.88;5064145;28;20052;-67
2022/05/02 03:12:20;;;;;;;19.80;10.13;;;;;;;-145.50;100.00;65435.88;5053792;28;20041;-66
2022/05/02 03:14:47;;;;;;;15.95;10.57;;;;;;;-145.50;100.00;65435.88;5063450;28;20051;-67
2022/05/02 03:17:14;;;;;;;15.02;9.85;;;;;;;-145.50;100.00;65435.88;5064017;28;20059;-66
2022/05/02 03:19:40;;;;;;;14.48;9.88;;;;;;;-145.50;100.00;65435.88;5059552;28;20049;-66
2022/05/02 03:22:07;;;;;;;16.75;10.70;;;;;;;-145.50;100.00;65435.88;5064565;28;20492;-66
2022/05/02 03:24:33;;;;;;;14.13;10.25;;;;;;;-145.50;100.00;65435.88;5054623;28;20560;-67
2022/05/02 03:27:00;;;;;;;16.63;10.45;;;;;;;-145.50;100.00;65435.88;5060532;28;20128;-67
2022/05/02 03:29:26;;;;;;;15.30;9.82;;;;;;;-145.50;100.00;65435.88;5060526;28;20048;-66
2022/05/02 03:31:53;;;;;;;11.82;8.77;;;;;;;-145.50;100.00;65435.88;5067976;28;20058;-67
2022/05/02 03:34:20;;;;;;;16.88;10.73;;;;;;;-145.50;100.00;65435.88;5074356;28;20079;-67
2022/05/02 03:36:46;;;;;;;15.00;10.13;;;;;;;-145.50;100.00;65435.88;5062297;28;20049;-67
2022/05/02 03:39:12;;;;;;;17.45;11.82;;;;;;;-145.50;100.00;65435.88;5063591;28;20051;-66
2022/05/02 03:41:39;;;;;;;14.60;9.57;;;;;;;-145.50;100.00;65435.88;5061123;28;20364;-67
2022/05/02 03:44:05;;;;;;;14.05;9.38;;;;;;;-145.50;100.00;65435.88;5070050;28;20064;-67
2022/05/02 03:46:32;;;;;;;23.00;10.80;;;;;;;-145.50;100.00;65435.88;5062677;28;20048;-68
2022/05/02 03:49:00;;;;;;;16.38;10.00;;;;;;;-145.50;100.00;65435.88;5074509;28;20565;-67
2022/05/02 03:51:27;;;;;;;16.90;10.63;;;;;;;-145.50;100.00;65435.88;5065877;28;20056;-67
2022/05/02 03:53:54;;;;;;;13.07;9.50;;;;;;;-145.50;100.00;65435.88;5056776;28;20131;-67
2022/05/02 03:56:20;;;;;;;13.00;9.55;;;;;;;-145.50;100.00;65435.88;5066098;28;20489;-66
2022/05/02 03:58:47;;;;;;;17.42;10.27;;;;;;;-145.50;100.00;65435.88;5065219;28;20725;-67
2022/05/02 04:01:13;;;;;;;15.43;10.90;;;;;;;-145.50;100.00;65435.88;5067463;28;20084;-68
2022/05/02 04:03:40;;;;;;;16.50;10.90;;;;;;;-145.50;100.00;65435.88;5061473;28;20059;-67
2022/05/02 04:06:06;;;;;;;16.13;9.68;;;;;;;-145.50;100.00;65435.88;5085871;28;20059;-67
2022/05/02 04:08:33;;;;;;;14.95;10.18;;;;;;;-145.50;100.00;65435.88;5070725;28;20056;-66
2022/05/02 04:10:59;;;;;;;14.63;10.48;;;;;;;-145.50;100.00;65435.88;5060335;28;20204;-67
2022/05/02 04:13:25;;;;;;;15.65;10.32;;;;;;;-145.50;100.00;65435.88;5066695;28;20092;-66
2022/05/02 04:15:52;;;;;;;14.20;10.20;;;;;;;-145.50;100.00;65435.88;5053482;28;20052;-67
2022/05/02 04:18:18;;;;;;;17.60;10.18;;;;;;;-145.50;100.00;65435.88;5047749;28;20052;-66
2022/05/02 04:20:45;;;;;;;15.82;10.38;;;;;;;-145.50;100.00;65435.88;5066131;28;20776;-67
2022/05/02 04:23:11;;;;;;;17.90;10.60;;;;;;;-145.50;100.00;65435.88;5082793;28;20071;-67
2022/05/02 04:25:38;;;;;;;17.35;10.98;;;;;;;-145.50;100.00;65435.88;5062102;28;20441;-66
2022/05/02 04:28:05;;;;;;;17.35;10.45;;;;;;;-145.50;100.00;65435.88;5063866;28;20059;-67
2022/05/02 04:30:31;;;;;;;17.05;10.90;;;;;;;-145.50;100.00;65435.88;5073888;28;20058;-66
2022/05/02 04:32:58;;;;;;;16.15;11.20;;;;;;;-145.50;100.00;65435.88;5039511;28;20062;-66
2022/05/02 04:35:24;;;;;;;20.45;11.75;;;;;;;-145.50;100.00;65435.88;5072851;28;20056;-67
2022/05/02 04:37:50;;;;;;;19.63;10.38;;;;;;;-145.50;100.00;65435.88;5066217;28;20056;-66
2022/05/02 04:40:17;;;;;;;16.55;10.32;;;;;;;-145.50;100.00;65435.88;5065186;28;20056;-66
2022/05/02 04:42:43;;;;;;;13.07;9.90;;;;;;;-145.50;100.00;65435.88;5061408;28;20052;-67
2022/05/02 04:45:10;;;;;;;15.60;10.20;;;;;;;-145.50;100.00;65435.88;5056882;28;20150;-67
2022/05/02 04:47:36;;;;;;;18.33;10.48;;;;;;;-145.50;100.00;65435.88;5066706;28;20056;-67
2022/05/02 04:50:03;;;;;;;17.67;11.60;;;;;;;-145.50;100.00;65435.88;5062673;28;20087;-67
2022/05/02 04:52:30;;;;;;;17.48;11.18;;;;;;;-145.50;100.00;65435.88;5081884;28;20052;-67
2022/05/02 04:54:56;;;;;;;17.42;10.35;;;;;;;-145.50;100.00;65435.88;5070414;28;20155;-67
2022/05/02 04:57:23;;;;;;;17.38;10.68;;;;;;;-145.50;100.00;65435.88;5055646;28;20052;-67
2022/05/02 04:59:49;;;;;;;17.52;11.15;;;;;;;-145.50;100.00;65435.88;5063612;28;20044;-67
2022/05/02 05:02:16;;;;;;;16.58;10.75;;;;;;;-145.50;100.00;65435.88;5065856;28;20061;-68
2022/05/02 05:04:43;;;;;;;15.10;10.77;;;;;;;-145.50;100.00;65435.88;5075397;28;20052;-68
2022/05/02 05:07:10;;;;;;;14.45;10.45;;;;;;;-145.50;100.00;65435.88;5059343;28;20060;-68
2022/05/02 05:09:36;;;;;;;17.25;10.82;;;;;;;-145.50;100.00;65435.88;5067978;28;20500;-67
2022/05/02 05:12:09;;;;;;;17.23;11.35;;;;;;;-145.50;100.00;65435.88;5065240;28;20052;-67
2022/05/02 05:17:52;;;;;;;16.65;11.30;;;;;;;-145.50;100.00;65435.88;5081491;28;20048;-67
2022/05/02 05:20:55;;;;;;;15.98;11.00;;;;;;;-145.50;100.00;65435.88;5069273;28;20827;-68
2022/05/02 05:23:39;;;;;;;18.60;10.43;;;;;;;-145.50;100.00;65435.88;5062047;28;20052;-67
2022/05/02 05:26:13;;;;;;;14.35;10.20;;;;;;;-145.50;100.00;65435.88;5053921;28;20143;-67
2022/05/02 05:29:07;;;;;;;21.50;10.75;;;;;;;-145.50;100.00;65435.88;5064839;28;20091;-67
2022/05/02 05:31:48;;;;;;;15.95;11.23;;;;;;;-145.50;100.00;65435.88;5060150;28;20050;-68
2022/05/02 05:34:22;;;;;;;16.63;10.98;;;;;;;-145.50;100.00;65435.88;5066618;28;20040;-67
2022/05/02 05:37:04;;;;;;;18.08;10.13;;;;;;;-145.50;100.00;65435.88;5073709;28;20051;-67
2022/05/02 05:39:33;;;;;;;18.80;11.25;;;;;;;-145.50;100.00;65435.88;5068811;28;20056;-68
2022/05/02 05:42:16;;;;;;;18.52;11.15;;;;;;;-145.50;100.00;65435.88;5071191;28;20058;-68
2022/05/02 05:45:11;;;;;;;16.02;11.00;;;;;;;-145.50;100.00;65435.88;5078840;28;20062;-67
2022/05/02 05:48:01;;;;;;;15.73;11.43;;;;;;;-145.50;100.00;65435.88;5031508;28;20052;-68
2022/05/02 05:50:36;;;;;;;17.48;10.15;;;;;;;-145.50;100.00;65435.88;5060899;28;20104;-67
2022/05/02 05:53:16;;;;;;;19.67;11.38;;;;;;;-145.50;100.00;65435.88;5053072;28;20058;-68
2022/05/02 05:55:50;;;;;;;20.60;11.85;;;;;;;-145.50;100.00;65435.88;5066832;28;20060;-67
2022/05/02 05:58:28;;;;;;;18.52;11.45;;;;;;;-145.50;100.00;65435.88;5063921;28;20422;-67
2022/05/02 06:01:08;;;;;;;18.67;11.48;;;;;;;-145.50;100.00;65435.88;5072346;28;20044;-68
2022/05/02 06:03:51;;;;;;;16.02;11.30;;;;;;;-145.50;100.00;65435.88;5067755;28;20083;-67
2022/05/02 06:06:19;;;;;;;17.08;11.02;;;;;;;-145.50;100.00;65435.88;5064586;28;20313;-67
2022/05/02 06:08:46;;;;;;;18.42;12.25;;;;;;;-145.50;100.00;65435.88;5068833;28;20048;-67
2022/05/02 06:11:15;;;;;;;22.33;11.95;;;;;;;-145.50;100.00;65435.88;5062277;28;20049;-67
2022/05/02 06:13:43;;;;;;;16.90;11.07;;;;;;;-145.50;100.00;65435.88;5057371;28;20075;-68
2022/05/02 06:19:05;;;;;;;20.45;12.40;;;;;;;-145.50;100.00;65435.88;5065172;28;20055;-67
2022/05/02 06:21:33;;;;;;;20.52;12.00;;;;;;;-145.50;100.00;65435.88;5061624;28;20143;-67
2022/05/02 06:24:04;;;;;;;16.50;10.70;;;;;;;-145.50;100.00;65435.88;5070335;28;20071;-68
2022/05/02 06:26:30;;;;;;;19.88;11.32;;;;;;;-145.50;100.00;65435.88;5074322;28;20076;-67
2022/05/02 06:28:57;;;;;;;18.92;10.90;;;;;;;-145.50;100.00;65435.88;5064456;28;20139;-67
2022/05/02 06:31:29;;;;;;;19.02;11.40;;;;;;;-145.50;100.00;65435.88;5067570;28;20762;-67
2022/05/02 06:34:01;;;;;;;16.35;11.05;;;;;;;-145.50;100.00;65435.88;5065344;28;20056;-68
2022/05/02 06:36:59;;;;;;;16.60;11.10;;;;;;;-145.50;100.00;65435.88;5082014;28;20048;-67
2022/05/02 06:40:03;;;;;;;14.98;10.98;;;;;;;-145.50;100.00;65435.88;5078452;28;20547;-68
2022/05/02 06:42:33;;;;;;;17.75;10.77;;;;;;;-145.50;100.00;65435.88;5077538;28;20055;-68
2022/05/02 06:45:12;;;;;;;17.85;11.02;;;;;;;-145.50;100.00;65435.88;5057122;28;20076;-67
2022/05/02 06:48:12;;;;;;;17.85;11.15;;;;;;;-145.50;100.00;65435.88;5067281;28;20106;-67
2022/05/02 06:50:40;;;;;;;18.25;10.90;;;;;;;-145.50;100.00;65435.88;5067173;28;20058;-67
2022/05/02 06:53:15;;;;;;;18.33;11.27;;;;;;;-145.50;100.00;65435.88;5075236;28;20164;-67
2022/05/02 06:56:06;;;;;;;20.67;9.98;;;;;;;-145.50;100.00;65435.88;5062651;28;20135;-67
2022/05/02 06:58:49;;;;;;;17.98;10.98;;;;;;;-145.50;100.00;65435.88;5063899;28;20058;-67
2022/05/02 07:01:48;;;;;;;12.82;9.02;;;;;;;-145.50;100.00;65435.88;5070775;28;20139;-67
2022/05/02 07:04:47;;;;;;;17.20;10.05;;;;;;;-145.50;100.00;65435.88;5075134;28;20049;-67
2022/05/02 07:07:39;;;;;;;19.38;10.77;;;;;;;-145.50;100.00;65435.88;5065571;28;20091;-67
2022/05/02 07:10:23;;;;;;;16.55;10.07;;;;;;;-145.50;100.00;65435.88;5071797;28;20078;-68
2022/05/02 07:13:13;;;;;;;14.48;8.82;;;;;;;-145.50;100.00;65435.88;5062149;28;20066;-68
2022/05/02 07:15:48;;;;;;;15.88;9.82;;;;;;;-145.50;100.00;65435.88;5082853;28;20044;-68
2022/05/02 07:18:52;;;;;;;18.77;9.63;;;;;;;-145.50;100.00;65435.88;5064861;28;20359;-67
2022/05/02 07:21:38;;;;;;;15.65;9.38;;;;;;;-145.50;100.00;65435.88;5071873;28;20048;-66
2022/05/02 07:24:25;;;;;;;12.90;9.20;;;;;;;-145.50;100.00;65435.88;5066061;28;20048;-67
2022/05/02 07:27:04;;;;;;;13.70;8.55;;;;;;;-145.50;100.00;65435.88;5075394;28;20135;-67
2022/05/02 07:29:33;;;;;;;12.65;7.85;;;;;;;-145.50;100.00;65435.88;5077360;28;20045;-67
2022/05/02 07:32:01;;;;;;;14.75;9.38;;;;;;;-145.50;100.00;65435.88;5073808;28;20131;-68
2022/05/02 07:34:29;;;;;;;14.15;8.38;;;;;;;-145.50;100.00;65435.88;5085292;28;20040;-68
2022/05/02 07:36:56;;;;;;;;;;;;;;;-145.50;100.00;65435.88;5073548;28;20135;-67
2022/05/02 07:39:24;;;;;;;11.35;7.15;;;;;;;-145.50;100.00;65435.88;5081581;28;20257;-67
2022/05/02 07:41:51;;;;;;;;;;;;;;;-145.50;100.00;65435.88;5062786;28;20074;-67
2022/05/02 07:44:20;;;;;;;11.52;6.80;;;;;;;-145.50;100.00;65435.88;5073787;28;19927;-68
2022/05/02 07:46:50;;;;;;;12.00;7.60;;;;;;;-145.50;100.00;65435.88;5066063;28;20131;-67
2022/05/02 07:49:22;;;;;;;8.85;5.82;;;;;;;-145.50;100.00;65435.88;5071779;28;20056;-67
2022/05/02 07:51:51;;;;;;;13.30;7.80;;;;;;;-145.50;100.00;65435.88;5069501;28;20482;-67
2022/05/02 07:54:22;;;;;;;;;;;;;;;-145.50;100.00;65435.88;5060919;28;20091;-67
2022/05/02 07:56:57;;;;;;;10.85;6.78;;;;;;;-145.50;100.00;65435.88;5071396;28;20011;-67
2022/05/02 07:59:38;;;;;;;12.02;6.35;;;;;;;-145.50;100.00;65435.88;5067747;28;20055;-66
2022/05/02 08:02:06;;;;;;;13.50;7.25;;;;;;;-145.50;100.00;65435.88;5077605;28;20063;-67
2022/05/02 08:04:36;;;;;;;8.10;5.63;;;;;;;-145.50;100.00;65435.88;5065224;28;20123;-66
2022/05/02 08:07:22;;;;;;;10.93;7.35;;;;;;;-145.50;100.00;65435.88;5070420;28;20044;-67
2022/05/02 08:10:04;;;;;;;10.40;7.05;;;;;;;-145.50;100.00;65435.88;5073130;28;20602;-67
2022/05/02 08:12:39;;;;;;;13.70;7.35;;;;;;;-145.50;100.00;65435.88;5070518;28;20063;-67
2022/05/02 08:15:15;;;;;;;11.55;7.00;;;;;;;-145.50;100.00;65435.88;5065995;28;20498;-67
2022/05/02 08:18:09;;;;;;;13.82;7.78;;;;;;;-145.50;100.00;65435.88;5083250;28;20048;-68
2022/05/02 08:20:55;;;;;;;9.95;7.20;;;;;;;-145.50;100.00;65435.88;5082720;28;20052;-67
2022/05/02 08:29:45;;;;;;;14.23;8.00;;;;;;;-145.50;100.00;65435.88;5090202;28;20400;-67
2022/05/02 08:32:22;;;;;;;9.73;7.10;;;;;;;-145.50;100.00;65435.88;5074733;28;20075;-68
2022/05/02 08:35:03;;;;;;;12.18;8.02;;;;;;;-145.50;100.00;65435.88;5066255;28;20520;-68
2022/05/02 08:37:44;;;;;;;11.10;7.45;;;;;;;-145.50;100.00;65435.88;5077530;28;20135;-68
2022/05/02 08:40:44;;;;;;;10.52;7.82;;;;;;;-145.50;100.00;65435.88;5071063;28;20052;-67
2022/05/02 08:43:50;;;;;;;13.20;7.05;;;;;;;-145.50;100.00;65435.88;5081040;28;20076;-68
2022/05/02 08:46:49;;;;;;;10.50;6.60;;;;;;;-145.50;100.00;65435.88;5077972;28;20051;-68
2022/05/02 08:49:33;;;;;;;11.77;6.32;;;;;;;-145.50;100.00;65435.88;5064708;28;20549;-67
2022/05/02 08:52:21;;;;;;;16.92;6.90;;;;;;;-145.50;100.00;65435.88;5075848;28;20052;-68
2022/05/02 08:54:57;;;;;;;;;;;;;;;-145.50;100.00;65435.88;5074154;28;20410;-68
2022/05/02 08:57:44;;;;;;;16.35;7.25;;;;;;;-145.50;100.00;65435.88;5077593;28;20364;-68
2022/05/02 09:00:18;;;;;;;12.07;7.57;;;;;;;-145.50;100.00;65435.88;5054508;28;20062;-68
2022/05/02 09:03:20;;;;;;;11.77;7.85;;;;;;;-145.50;100.00;65435.88;5057598;28;20052;-68
2022/05/02 09:06:18;;;;;;;9.60;7.43;;;;;;;-145.50;100.00;65435.88;5080318;28;20059;-68
2022/05/02 09:09:10;;;;;;;10.25;7.40;;;;;;;-145.50;100.00;65435.88;5063331;28;20051;-68
2022/05/02 09:12:18;;;;;;;16.08;8.18;;;;;;;-145.50;100.00;65435.88;5076519;28;20552;-69
2022/05/02 09:14:56;;;;;;;13.40;8.82;;;;;;;-145.50;100.00;65435.88;5070090;28;20051;-68
2022/05/02 09:17:41;;;;;;;13.15;8.50;;;;;;;-145.50;100.00;65435.88;5078401;28;20053;-68
2022/05/02 09:20:24;;;;;;;12.85;8.98;;;;;;;-145.50;100.00;65435.88;5080081;28;20049;-69
2022/05/02 09:23:28;;;;;;;14.70;8.45;;;;;;;-145.50;100.00;65435.88;5079377;28;20076;-68
2022/05/02 09:26:05;;;;;;;14.98;9.35;;;;;;;-145.50;100.00;65435.88;5068452;28;20083;-68
2022/05/02 09:28:38;;;;;;;12.87;9.30;;;;;;;-145.50;100.00;65435.88;5080445;28;20513;-68
2022/05/02 09:31:32;;;;;;;11.35;8.55;;;;;;;-145.50;100.00;65435.88;5070223;28;20469;-69
2022/05/02 09:34:44;;;;;;;10.52;7.57;;;;;;;-145.50;100.00;65435.88;5071085;28;20102;-68
2022/05/02 09:37:38;;;;;;;13.43;7.70;;;;;;;-145.50;100.00;65435.88;5066113;28;20048;-68
2022/05/02 09:40:12;;;;;;;13.65;8.13;;;;;;;-145.50;100.00;65435.88;5046348;28;20052;-68
2022/05/02 09:43:09;;;;;;;13.90;8.82;;;;;;;-145.50;100.00;65435.88;5068811;28;20134;-68
2022/05/02 09:52:25;;;;;;;13.63;10.40;;;;;;;-145.50;100.00;65435.88;5072550;28;20079;-68
2022/05/02 09:58:30;;;;;;;13.48;8.30;;;;;;;-145.50;100.00;65435.88;5061348;28;20044;-68
2022/05/02 10:01:20;;;;;;;13.98;9.35;;;;;;;-145.50;100.00;65435.88;5065067;28;20074;-68
2022/05/02 10:04:08;;;;;;;13.80;9.82;;;;;;;-145.50;100.00;65435.88;5074972;28;20044;-70
2022/05/02 10:06:51;;;;;;;14.77;10.38;;;;;;;-145.50;100.00;65435.88;5075204;28;20507;-68
2022/05/02 10:09:36;;;;;;;14.20;9.70;;;;;;;-145.50;100.00;65435.88;5063113;28;20083;-69
2022/05/02 10:12:17;;;;;;;14.88;9.52;;;;;;;-145.50;100.00;65435.88;5063497;28;20048;-69
2022/05/02 10:15:19;;;;;;;15.13;9.68;;;;;;;-145.50;100.00;65435.88;5068646;28;20054;-69
2022/05/02 10:18:06;;;;;;;12.55;9.57;;;;;;;-145.50;100.00;65435.88;5080815;28;20482;-69
2022/05/02 10:21:02;;;;;;;12.48;9.60;;;;;;;-145.50;100.00;65435.88;5069530;28;20045;-69
2022/05/02 10:23:37;;;;;;;14.80;10.15;;;;;;;-145.50;100.00;65435.88;5080611;28;20048;-69
2022/05/02 10:26:36;;;;;;;12.45;10.23;;;;;;;-145.50;100.00;65435.88;5059877;28;20087;-68
2022/05/02 10:29:18;;;;;;;12.13;9.20;;;;;;;-145.50;100.00;65435.88;5067751;28;20078;-69
2022/05/02 10:31:54;;;;;;;12.50;10.02;;;;;;;-145.50;100.00;65435.88;5067743;28;20052;-69
2022/05/02 10:34:24;;;;;;;11.75;10.35;;;;;;;-145.50;100.00;65435.88;5065231;28;20509;-68
2022/05/02 10:36:54;;;;;;;13.85;9.80;;;;;;;-145.50;100.00;65435.88;5076679;28;20075;-69
2022/05/02 10:39:40;;;;;;;12.45;10.35;;;;;;;-145.50;100.00;65435.88;5061507;28;20057;-69
2022/05/02 10:42:10;;;;;;;12.85;10.82;;;;;;;-145.50;100.00;65435.88;5070183;28;20413;-68
2022/05/02 10:44:41;;;;;;;12.02;9.52;;;;;;;-145.50;100.00;65435.88;5066855;28;20049;-69
2022/05/02 10:47:11;;;;;;;11.23;9.95;;;;;;;-145.50;100.00;65435.88;5074840;28;20060;-68
2022/05/02 10:50:02;;;;;;;14.05;10.70;;;;;;;-145.50;100.00;65435.88;5080055;28;20055;-68
2022/05/02 10:52:48;;;;;;;11.95;8.57;;;;;;;-145.50;100.00;65435.88;5068519;28;20057;-69
2022/05/02 10:55:33;;;;;;;11.70;10.05;;;;;;;-145.50;100.00;65435.88;5069029;28;21150;-69
2022/05/02 10:58:03;;;;;;;14.25;10.95;;;;;;;-145.50;100.00;65435.88;5084844;28;20213;-69
2022/05/02 11:00:30;;;;;;;12.98;9.63;;;;;;;-145.50;100.00;65435.88;5079193;28;20052;-68
2022/05/02 11:03:28;;;;;;;13.82;9.88;;;;;;;-145.50;100.00;65435.88;5079493;28;20492;-69
2022/05/02 11:06:23;;;;;;;12.13;9.65;;;;;;;-145.50;100.00;65435.88;5068946;28;20044;-69
2022/05/02 11:09:00;;;;;;;10.75;8.57;;;;;;;-145.50;100.00;65435.88;5067292;28;20071;-69
2022/05/02 11:11:45;;;;;;;10.70;9.63;;;;;;;-145.50;100.00;65435.88;5072230;28;20091;-69
2022/05/02 11:14:25;;;;;;;12.50;10.25;;;;;;;-145.50;100.00;65435.88;5072080;28;20128;-68
2022/05/02 11:16:59;;;;;;;15.30;10.93;;;;;;;-145.50;100.00;65435.88;5079890;28;20048;-69
2022/05/02 11:22:31;;;;;;;12.40;9.88;;;;;;;-145.50;100.00;65435.88;5065763;28;20074;-68
2022/05/02 11:24:58;;;;;;;;;;;;;;;-145.50;100.00;65435.88;5065520;28;20048;-68
2022/05/02 11:27:37;;;;;;;12.48;10.30;;;;;;;-145.50;100.00;65435.88;5071381;28;19920;-68
2022/05/02 11:30:08;;;;;;;11.38;9.50;;;;;;;-145.50;100.00;65435.88;5064635;28;20394;-68
2022/05/02 11:32:37;;;;;;;13.45;9.18;;;;;;;-145.50;100.00;65435.88;5072481;28;20052;-68
2022/05/02 11:35:16;;;;;;;14.10;9.80;;;;;;;-145.50;100.00;65435.88;5061979;28;20048;-69
2022/05/02 11:38:08;;;;;;;15.30;10.93;;;;;;;-145.50;100.00;65435.88;5075216;28;20078;-69
2022/05/02 11:40:45;;;;;;;13.02;9.70;;;;;;;-145.50;100.00;65435.88;5065069;28;20510;-68
2022/05/02 11:43:15;;;;;;;12.38;9.55;;;;;;;-145.50;100.00;65435.88;5075102;28;20052;-67
2022/05/02 11:45:53;;;;;;;12.70;9.43;;;;;;;-145.50;100.00;65435.88;5071861;28;20501;-67
2022/05/02 11:48:19;;;;;;;14.50;10.43;;;;;;;-145.50;100.00;65435.88;5062818;28;20228;-67
2022/05/02 11:50:47;;;;;;;12.68;8.95;;;;;;;-145.50;100.00;65435.88;5050312;28;20141;-67
2022/05/02 11:53:16;;;;;;;12.52;9.05;;;;;;;-145.50;100.00;65435.88;5077605;28;20460;-67
2022/05/02 11:55:46;;;;;;;14.63;11.13;;;;;;;-145.50;100.00;65435.88;5072324;28;20710;-68
2022/05/02 11:58:24;;;;;;;12.57;8.77;;;;;;;-145.50;100.00;65435.88;5083016;28;20052;-68
2022/05/02 12:00:57;;;;;;;11.82;10.00;;;;;;;-145.50;100.00;65435.88;5075409;28;20142;-68